Terminal Aerodrome Forecast
Issued by NWS Topeka, KS

Home | Current Version | Previous Version | Text Only | Print | Product List | Glossary Off
Versions: 1 2 3 4 5 6 7 8 9 10 11 12 13 14 15 16 17 18 19 20 21 22 23 24 25

000
FTUS43 KTOP 222335
TAFTOP
TAF
KTOP 222335Z 2300/2324 30016G23KT 3SM -SN BR OVC015
      TEMPO 2300/2302 1 1/2SM -SN BR OVC008
     FM230200 30015G22KT P6SM BKN015
     FM230800 31013KT P6SM BKN025
     FM231300 30007KT P6SM SCT025=

USA.gov is the U.S. government's official web portal to all federal, state and local government web resources and services.